createdAt,value
2018-11-02T00:00:19.477Z,9.80
2018-11-02T00:05:21.697Z,9.80
2018-11-02T00:10:39.050Z,9.80
2018-11-02T00:15:41.257Z,9.90
2018-11-02T00:20:43.482Z,9.90
2018-11-02T00:25:45.702Z,9.90
2018-11-02T00:30:47.939Z,9.90
2018-11-02T00:35:50.157Z,10.00
2018-11-02T00:40:52.381Z,9.90
2018-11-02T00:45:54.688Z,10.00
2018-11-02T00:50:56.902Z,9.90
2018-11-02T00:55:59.139Z,9.70
2018-11-02T01:01:01.390Z,9.70
2018-11-02T01:06:03.702Z,9.70
2018-11-02T01:11:05.970Z,9.70
2018-11-02T01:16:08.226Z,9.60
2018-11-02T01:21:10.670Z,9.40
2018-11-02T01:26:12.902Z,9.60
2018-11-02T01:31:15.153Z,9.60
2018-11-02T01:36:17.390Z,9.50
2018-11-02T01:41:19.618Z,9.20
2018-11-02T01:46:21.825Z,9.20
2018-11-02T01:51:24.046Z,9.10
2018-11-02T01:56:26.257Z,9.00
2018-11-02T02:01:28.525Z,9.10
2018-11-02T02:06:30.779Z,9.00
2018-11-02T02:11:33.046Z,9.10
2018-11-02T02:16:35.277Z,9.00
2018-11-02T02:21:37.534Z,9.00
2018-11-02T02:26:39.786Z,9.20
2018-11-02T02:31:42.130Z,9.10
2018-11-02T02:36:44.399Z,9.00
2018-11-02T02:41:46.627Z,9.10
2018-11-02T02:46:48.865Z,9.10
2018-11-02T02:51:51.102Z,9.20
2018-11-02T02:56:53.335Z,9.10
2018-11-02T03:01:55.572Z,9.00
2018-11-02T03:06:57.818Z,9.00
2018-11-02T03:12:00.030Z,9.00
2018-11-02T03:17:02.258Z,8.90
2018-11-02T03:22:04.508Z,9.00
2018-11-02T03:27:06.761Z,9.00
2018-11-02T03:32:09.061Z,9.00
2018-11-02T03:37:11.277Z,9.00
2018-11-02T03:42:13.494Z,8.90
2018-11-02T03:47:15.730Z,8.80
2018-11-02T03:52:17.954Z,8.90
2018-11-02T03:57:20.210Z,8.80
2018-11-02T04:02:22.459Z,8.90
2018-11-02T04:07:24.693Z,8.80
2018-11-02T04:12:27.202Z,8.80
2018-11-02T04:17:32.393Z,8.90
2018-11-02T04:22:36.482Z,8.90
2018-11-02T04:27:38.694Z,8.60
2018-11-02T04:32:40.918Z,8.60
2018-11-02T04:37:43.171Z,8.40
2018-11-02T04:42:45.385Z,8.40
2018-11-02T04:47:47.658Z,8.20
2018-11-02T04:52:49.882Z,8.00
2018-11-02T04:57:52.151Z,8.00
2018-11-02T05:02:54.500Z,8.10
2018-11-02T05:07:56.752Z,8.10
2018-11-02T05:12:59.021Z,8.20
2018-11-02T05:18:01.245Z,8.20
2018-11-02T05:23:03.814Z,8.30
2018-11-02T05:28:06.077Z,8.20
2018-11-02T05:33:08.332Z,8.20
2018-11-02T05:38:10.594Z,8.20
2018-11-02T05:43:12.869Z,8.20
2018-11-02T05:48:15.214Z,8.00
2018-11-02T05:53:17.450Z,7.80
2018-11-02T05:58:19.670Z,7.70
2018-11-02T06:03:21.933Z,7.40
2018-11-02T06:08:24.136Z,7.30
2018-11-02T06:13:26.424Z,7.30
2018-11-02T06:18:28.579Z,7.30
2018-11-02T06:23:30.794Z,7.40
2018-11-02T06:28:33.066Z,7.40
2018-11-02T06:33:35.529Z,7.40
2018-11-02T06:38:37.803Z,7.40
2018-11-02T06:43:39.953Z,7.50
2018-11-02T06:48:42.174Z,7.70
2018-11-02T06:53:44.422Z,7.70
2018-11-02T06:58:46.694Z,7.70
2018-11-02T07:03:48.955Z,8.00
2018-11-02T07:08:51.201Z,8.30
2018-11-02T07:13:53.423Z,8.70
2018-11-02T07:18:55.700Z,9.30
2018-11-02T07:23:57.943Z,9.50
2018-11-02T07:29:00.186Z,10.00
2018-11-02T07:34:02.517Z,10.50
2018-11-02T07:39:07.229Z,11.00
2018-11-02T07:44:09.652Z,11.50
2018-11-02T07:49:11.893Z,11.70
2018-11-02T07:54:14.142Z,12.00
2018-11-02T07:59:16.390Z,12.30
2018-11-02T08:04:19.126Z,12.50
2018-11-02T08:09:21.384Z,12.40
2018-11-02T08:14:23.634Z,12.20
2018-11-02T08:19:25.897Z,12.40
2018-11-02T08:24:28.215Z,12.70
2018-11-02T08:29:30.385Z,13.10
2018-11-02T08:34:32.654Z,13.50
2018-11-02T08:39:34.902Z,14.00
2018-11-02T08:44:37.145Z,13.50
2018-11-02T08:49:39.392Z,15.10
2018-11-02T08:54:41.663Z,14.80
2018-11-02T08:59:44.169Z,15.00
2018-11-02T09:04:46.396Z,15.30
2018-11-02T09:09:48.654Z,16.20
2018-11-02T09:14:50.887Z,16.60
2018-11-02T09:19:53.338Z,17.30
2018-11-02T09:24:55.586Z,16.90
2018-11-02T09:29:57.786Z,15.70
2018-11-02T09:35:00.014Z,16.30
2018-11-02T09:40:02.282Z,16.30
2018-11-02T09:45:06.172Z,18.20
2018-11-02T09:50:09.210Z,17.90
2018-11-02T09:55:13.142Z,17.70
2018-11-02T10:00:15.385Z,17.60
2018-11-02T10:05:17.610Z,17.50
2018-11-02T10:10:19.851Z,17.30
2018-11-02T10:15:22.102Z,16.40
2018-11-02T10:20:24.331Z,16.40
2018-11-02T10:25:26.594Z,14.90
2018-11-02T10:30:28.858Z,15.60
2018-11-02T10:35:31.290Z,15.80
2018-11-02T10:40:33.830Z,15.40
2018-11-02T10:45:38.350Z,15.60
2018-11-02T10:50:40.614Z,15.20
2018-11-02T10:55:42.880Z,15.20
2018-11-02T11:00:51.167Z,15.20
2018-11-02T11:05:53.298Z,15.50
2018-11-02T11:10:55.590Z,15.30
2018-11-02T11:15:57.810Z,15.30
2018-11-02T11:21:00.074Z,15.40
2018-11-02T11:26:02.259Z,15.10
2018-11-02T11:31:04.497Z,15.20
2018-11-02T11:36:07.043Z,15.00
2018-11-02T11:41:09.290Z,15.20
2018-11-02T11:46:11.514Z,15.10
2018-11-02T11:51:13.783Z,14.90
2018-11-02T11:56:16.017Z,14.90
2018-11-02T12:01:18.260Z,14.90
2018-11-02T12:06:20.502Z,14.80
2018-11-02T12:11:22.753Z,15.40
2018-11-02T12:16:27.050Z,15.40
2018-11-02T12:21:29.321Z,15.30
2018-11-02T12:26:31.567Z,15.70
2018-11-02T12:31:33.841Z,15.40
2018-11-02T12:36:36.085Z,14.70
2018-11-02T12:41:38.663Z,14.70
2018-11-02T12:46:40.910Z,14.70
2018-11-02T12:51:43.182Z,14.80
2018-11-02T12:56:45.459Z,14.70
2018-11-02T13:01:47.682Z,14.70
2018-11-02T13:06:49.947Z,14.70
2018-11-02T13:11:52.290Z,14.70
2018-11-02T13:16:54.502Z,14.40
2018-11-02T13:21:56.862Z,14.30
2018-11-02T13:26:59.012Z,14.40
2018-11-02T13:32:01.343Z,14.60
2018-11-02T13:37:03.554Z,14.60
2018-11-02T13:42:05.817Z,14.50
2018-11-02T13:47:08.066Z,14.60
2018-11-02T13:52:10.797Z,14.60
2018-11-02T13:57:13.047Z,14.50
2018-11-02T14:02:15.281Z,14.40
2018-11-02T14:07:17.526Z,14.40
2018-11-02T14:12:19.786Z,14.20
2018-11-02T14:17:22.060Z,14.20
2018-11-02T14:22:24.299Z,14.30
2018-11-02T14:27:26.566Z,14.10
2018-11-02T14:32:28.810Z,14.10
2018-11-02T14:37:31.054Z,14.10
2018-11-02T14:42:33.392Z,14.00
2018-11-02T14:47:35.679Z,13.80
2018-11-02T14:52:38.266Z,13.80
2018-11-02T14:57:40.537Z,13.80
2018-11-02T15:02:42.790Z,13.70
2018-11-02T15:07:45.026Z,13.70
2018-11-02T15:12:47.266Z,13.80
2018-11-02T15:17:49.501Z,13.70
2018-11-02T15:22:51.758Z,13.60
2018-11-02T15:27:56.325Z,13.60
2018-11-02T15:32:58.651Z,13.50
2018-11-02T15:38:00.960Z,13.50
2018-11-02T15:43:03.296Z,13.50
2018-11-02T15:48:05.625Z,13.50
2018-11-02T15:53:07.905Z,13.40
2018-11-02T15:58:10.180Z,13.20
2018-11-02T16:03:12.559Z,13.20
2018-11-02T16:08:14.839Z,12.90
2018-11-02T16:13:17.166Z,13.00
2018-11-02T16:18:19.469Z,12.90
2018-11-02T16:23:21.789Z,12.80
2018-11-02T16:28:24.194Z,12.70
2018-11-02T16:33:26.547Z,12.70
2018-11-02T16:38:28.922Z,12.70
2018-11-02T16:43:32.548Z,12.70
2018-11-02T16:48:35.738Z,12.60
2018-11-02T16:53:44.439Z,12.50
2018-11-02T16:58:53.024Z,12.60
2018-11-02T17:04:01.476Z,12.40
2018-11-02T17:09:11.887Z,12.30
2018-11-02T17:14:16.030Z,12.30
2018-11-02T17:19:24.515Z,12.30
2018-11-02T17:24:26.926Z,12.30
2018-11-02T17:29:29.311Z,12.20
2018-11-02T17:34:31.694Z,12.20
2018-11-02T17:39:34.268Z,12.20
2018-11-02T17:44:36.759Z,12.10
2018-11-02T17:49:39.150Z,12.20
2018-11-02T17:54:41.584Z,12.10
2018-11-02T17:59:43.978Z,11.90
2018-11-02T18:04:46.545Z,11.80
2018-11-02T18:09:48.871Z,11.70
2018-11-02T18:14:51.207Z,11.50
2018-11-02T18:19:53.490Z,11.40
2018-11-02T18:24:55.761Z,11.20
2018-11-02T18:29:58.026Z,11.10
2018-11-02T18:35:00.500Z,11.10
2018-11-02T18:40:02.683Z,11.00
2018-11-02T18:45:06.900Z,11.00
2018-11-02T18:50:09.542Z,10.90
2018-11-02T18:55:11.838Z,10.60
2018-11-02T19:00:14.161Z,10.60
2018-11-02T19:05:17.562Z,10.50
2018-11-02T19:10:19.842Z,10.50
2018-11-02T19:15:22.129Z,10.40
2018-11-02T19:20:24.556Z,10.40
2018-11-02T19:25:26.871Z,10.20
2018-11-02T19:30:29.136Z,10.30
2018-11-02T19:35:31.508Z,10.30
2018-11-02T19:40:33.800Z,10.30
2018-11-02T19:45:36.074Z,10.20
2018-11-02T19:50:39.250Z,10.20
2018-11-02T19:55:41.632Z,10.00
2018-11-02T20:00:43.856Z,9.90
2018-11-02T20:05:46.132Z,9.90
2018-11-02T20:10:48.396Z,10.00
2018-11-02T20:15:50.657Z,10.10
2018-11-02T20:20:52.968Z,10.00
2018-11-02T20:25:55.660Z,9.90
2018-11-02T20:30:57.924Z,9.90
2018-11-02T20:36:00.486Z,9.90
2018-11-02T20:41:02.862Z,9.90
2018-11-02T20:46:05.407Z,9.90
2018-11-02T20:51:07.875Z,9.80
2018-11-02T20:56:10.432Z,9.70
2018-11-02T21:01:12.726Z,9.60
2018-11-02T21:06:15.016Z,9.60
2018-11-02T21:11:17.347Z,9.50
2018-11-02T21:16:19.697Z,9.40
2018-11-02T21:21:21.867Z,9.30
2018-11-02T21:26:24.225Z,9.40
2018-11-02T21:31:26.481Z,9.40
2018-11-02T21:36:28.754Z,9.30
2018-11-02T21:41:30.990Z,9.30
2018-11-02T21:46:33.471Z,9.30
2018-11-02T21:51:35.722Z,9.30
2018-11-02T21:56:38.021Z,9.30
2018-11-02T22:01:40.190Z,9.20
2018-11-02T22:06:42.433Z,9.10
2018-11-02T22:11:44.657Z,9.10
2018-11-02T22:16:47.165Z,9.00
2018-11-02T22:21:49.401Z,9.00
2018-11-02T22:26:51.857Z,9.10
2018-11-02T22:31:54.094Z,9.10
2018-11-02T22:36:56.326Z,9.00
2018-11-02T22:41:58.545Z,9.00
2018-11-02T22:47:00.858Z,8.90
2018-11-02T22:52:03.078Z,8.90
2018-11-02T22:57:05.325Z,8.90
2018-11-02T23:02:07.539Z,8.90
2018-11-02T23:07:09.747Z,8.80
2018-11-02T23:12:11.973Z,8.80
2018-11-02T23:17:14.314Z,8.80
2018-11-02T23:22:16.482Z,8.80
2018-11-02T23:27:18.746Z,8.70
2018-11-02T23:32:20.981Z,8.70
2018-11-02T23:37:23.249Z,8.70
2018-11-02T23:42:25.466Z,8.60
2018-11-02T23:47:27.863Z,8.60
2018-11-02T23:52:30.107Z,8.60
2018-11-02T23:57:32.354Z,8.50
